sensor_id;sensor_type;location;lat;lon;timestamp;temperature;humidity
18797;DHT22;9526;52.612;13.300;2023-04-24T00:01:19;10.80;99.90
18797;DHT22;9526;52.612;13.300;2023-04-24T00:03:43;10.80;99.90
18797;DHT22;9526;52.612;13.300;2023-04-24T00:06:06;10.80;99.90
18797;DHT22;9526;52.612;13.300;2023-04-24T00:08:32;10.70;99.90
18797;DHT22;9526;52.612;13.300;2023-04-24T00:10:56;10.70;99.90
18797;DHT22;9526;52.612;13.300;2023-04-24T00:13:19;10.70;99.90
18797;DHT22;9526;52.612;13.300;2023-04-24T00:15:43;10.70;99.90
18797;DHT22;9526;52.612;13.300;2023-04-24T00:18:06;10.60;99.90
18797;DHT22;9526;52.612;13.300;2023-04-24T00:20:30;10.60;99.90
18797;DHT22;9526;52.612;13.300;2023-04-24T00:22:55;10.60;99.90
18797;DHT22;9526;52.612;13.300;2023-04-24T00:25:20;10.50;99.90
18797;DHT22;9526;52.612;13.300;2023-04-24T00:27:44;10.50;99.90
18797;DHT22;9526;52.612;13.300;2023-04-24T00:30:08;10.50;99.90
18797;DHT22;9526;52.612;13.300;2023-04-24T00:32:32;10.50;99.90
18797;DHT22;9526;52.612;13.300;2023-04-24T00:34:56;10.50;99.90
18797;DHT22;9526;52.612;13.300;2023-04-24T00:37:20;10.40;99.90
18797;DHT22;9526;52.612;13.300;2023-04-24T00:39:43;10.50;99.90
18797;DHT22;9526;52.612;13.300;2023-04-24T00:42:09;10.50;99.90
18797;DHT22;9526;52.612;13.300;2023-04-24T00:44:33;10.40;99.90
18797;DHT22;9526;52.612;13.300;2023-04-24T00:46:58;10.40;99.90
18797;DHT22;9526;52.612;13.300;2023-04-24T00:49:22;10.40;99.90
18797;DHT22;9526;52.612;13.300;2023-04-24T00:51:46;10.30;99.90
18797;DHT22;9526;52.612;13.300;2023-04-24T00:54:11;10.30;99.90
18797;DHT22;9526;52.612;13.300;2023-04-24T00:56:34;10.30;99.90
18797;DHT22;9526;52.612;13.300;2023-04-24T00:59:00;10.30;99.90
18797;DHT22;9526;52.612;13.300;2023-04-24T01:01:24;10.30;99.90
18797;DHT22;9526;52.612;13.300;2023-04-24T01:03:49;10.30;99.90
18797;DHT22;9526;52.612;13.300;2023-04-24T01:06:15;10.30;99.90
18797;DHT22;9526;52.612;13.300;2023-04-24T01:08:40;10.20;99.90
18797;DHT22;9526;52.612;13.300;2023-04-24T01:11:04;10.20;99.90
18797;DHT22;9526;52.612;13.300;2023-04-24T01:13:28;10.20;99.90
18797;DHT22;9526;52.612;13.300;2023-04-24T01:15:53;10.20;99.90
18797;DHT22;9526;52.612;13.300;2023-04-24T01:18:17;10.30;99.90
18797;DHT22;9526;52.612;13.300;2023-04-24T01:20:42;10.30;99.90
18797;DHT22;9526;52.612;13.300;2023-04-24T01:23:08;10.30;99.90
18797;DHT22;9526;52.612;13.300;2023-04-24T01:25:32;10.30;99.90
18797;DHT22;9526;52.612;13.300;2023-04-24T01:27:56;10.40;99.90
18797;DHT22;9526;52.612;13.300;2023-04-24T01:30:20;10.50;99.90
18797;DHT22;9526;52.612;13.300;2023-04-24T01:32:45;10.50;99.90
18797;DHT22;9526;52.612;13.300;2023-04-24T01:35:09;10.60;99.90
18797;DHT22;9526;52.612;13.300;2023-04-24T01:37:33;10.60;99.90
18797;DHT22;9526;52.612;13.300;2023-04-24T01:40:00;10.60;99.90
18797;DHT22;9526;52.612;13.300;2023-04-24T01:42:25;10.70;99.90
18797;DHT22;9526;52.612;13.300;2023-04-24T01:44:49;10.70;99.90
18797;DHT22;9526;52.612;13.300;2023-04-24T01:47:13;10.80;99.90
18797;DHT22;9526;52.612;13.300;2023-04-24T01:49:38;10.70;99.90
18797;DHT22;9526;52.612;13.300;2023-04-24T01:52:02;10.80;99.90
18797;DHT22;9526;52.612;13.300;2023-04-24T01:54:26;10.80;99.90
18797;DHT22;9526;52.612;13.300;2023-04-24T01:56:51;10.90;99.90
18797;DHT22;9526;52.612;13.300;2023-04-24T01:59:15;11.00;99.90
18797;DHT22;9526;52.612;13.300;2023-04-24T02:01:40;11.00;99.90
18797;DHT22;9526;52.612;13.300;2023-04-24T02:04:04;11.10;99.90
18797;DHT22;9526;52.612;13.300;2023-04-24T02:06:30;11.10;99.90
18797;DHT22;9526;52.612;13.300;2023-04-24T02:08:55;11.10;99.90
18797;DHT22;9526;52.612;13.300;2023-04-24T02:11:19;11.10;99.90
18797;DHT22;9526;52.612;13.300;2023-04-24T02:13:44;11.10;99.90
18797;DHT22;9526;52.612;13.300;2023-04-24T02:16:07;11.10;99.90
18797;DHT22;9526;52.612;13.300;2023-04-24T02:18:31;11.10;99.90
18797;DHT22;9526;52.612;13.300;2023-04-24T02:20:55;11.20;99.90
18797;DHT22;9526;52.612;13.300;2023-04-24T02:23:18;11.10;99.90
18797;DHT22;9526;52.612;13.300;2023-04-24T02:25:42;11.10;99.90
18797;DHT22;9526;52.612;13.300;2023-04-24T02:28:06;11.10;99.90
18797;DHT22;9526;52.612;13.300;2023-04-24T02:30:31;11.10;99.90
18797;DHT22;9526;52.612;13.300;2023-04-24T02:32:54;11.10;99.90
18797;DHT22;9526;52.612;13.300;2023-04-24T02:35:18;11.10;99.90
18797;DHT22;9526;52.612;13.300;2023-04-24T02:37:42;11.10;99.90
18797;DHT22;9526;52.612;13.300;2023-04-24T02:40:08;11.10;99.90
18797;DHT22;9526;52.612;13.300;2023-04-24T02:42:32;11.10;99.90
18797;DHT22;9526;52.612;13.300;2023-04-24T02:44:55;11.10;99.90
18797;DHT22;9526;52.612;13.300;2023-04-24T02:47:20;11.10;99.90
18797;DHT22;9526;52.612;13.300;2023-04-24T02:49:44;11.10;99.90
18797;DHT22;9526;52.612;13.300;2023-04-24T02:52:08;11.10;99.90
18797;DHT22;9526;52.612;13.300;2023-04-24T02:54:32;11.10;99.90
18797;DHT22;9526;52.612;13.300;2023-04-24T02:56:56;11.10;99.90
18797;DHT22;9526;52.612;13.300;2023-04-24T02:59:20;11.10;99.90
18797;DHT22;9526;52.612;13.300;2023-04-24T03:01:43;11.10;99.90
18797;DHT22;9526;52.612;13.300;2023-04-24T03:04:08;11.10;99.90
18797;DHT22;9526;52.612;13.300;2023-04-24T03:06:35;11.10;99.90
18797;DHT22;9526;52.612;13.300;2023-04-24T03:08:59;11.10;99.90
18797;DHT22;9526;52.612;13.300;2023-04-24T03:11:22;11.10;99.90
18797;DHT22;9526;52.612;13.300;2023-04-24T03:13:46;11.20;99.90
18797;DHT22;9526;52.612;13.300;2023-04-24T03:16:10;11.20;99.90
18797;DHT22;9526;52.612;13.300;2023-04-24T03:18:33;11.20;99.90
18797;DHT22;9526;52.612;13.300;2023-04-24T03:21:00;11.20;99.90
18797;DHT22;9526;52.612;13.300;2023-04-24T03:23:25;11.20;99.90
18797;DHT22;9526;52.612;13.300;2023-04-24T03:25:49;11.20;99.90
18797;DHT22;9526;52.612;13.300;2023-04-24T03:28:14;11.30;99.90
18797;DHT22;9526;52.612;13.300;2023-04-24T03:30:43;11.30;99.90
18797;DHT22;9526;52.612;13.300;2023-04-24T03:33:07;11.30;99.90
18797;DHT22;9526;52.612;13.300;2023-04-24T03:35:37;11.30;99.90
18797;DHT22;9526;52.612;13.300;2023-04-24T03:38:05;11.30;99.90
18797;DHT22;9526;52.612;13.300;2023-04-24T03:40:38;11.40;99.90
18797;DHT22;9526;52.612;13.300;2023-04-24T03:43:16;11.40;99.90
18797;DHT22;9526;52.612;13.300;2023-04-24T03:45:40;11.40;99.90
18797;DHT22;9526;52.612;13.300;2023-04-24T03:48:05;11.40;99.90
18797;DHT22;9526;52.612;13.300;2023-04-24T03:50:29;11.50;99.90
18797;DHT22;9526;52.612;13.300;2023-04-24T03:52:53;11.50;99.90
18797;DHT22;9526;52.612;13.300;2023-04-24T03:55:29;11.50;99.90
18797;DHT22;9526;52.612;13.300;2023-04-24T03:57:53;11.50;99.90
18797;DHT22;9526;52.612;13.300;2023-04-24T04:00:17;11.60;99.90
18797;DHT22;9526;52.612;13.300;2023-04-24T04:02:47;11.60;99.90
18797;DHT22;9526;52.612;13.300;2023-04-24T04:05:11;11.60;99.90
18797;DHT22;9526;52.612;13.300;2023-04-24T04:07:36;11.60;99.90
18797;DHT22;9526;52.612;13.300;2023-04-24T04:09:59;11.60;99.90
18797;DHT22;9526;52.612;13.300;2023-04-24T04:12:25;11.70;99.90
18797;DHT22;9526;52.612;13.300;2023-04-24T04:14:48;11.70;99.90
18797;DHT22;9526;52.612;13.300;2023-04-24T04:17:12;11.80;99.90
18797;DHT22;9526;52.612;13.300;2023-04-24T04:19:36;11.80;99.90
18797;DHT22;9526;52.612;13.300;2023-04-24T04:22:00;11.80;99.90
18797;DHT22;9526;52.612;13.300;2023-04-24T04:24:33;11.80;99.90
18797;DHT22;9526;52.612;13.300;2023-04-24T04:27:00;11.80;99.90
18797;DHT22;9526;52.612;13.300;2023-04-24T04:29:30;11.80;99.90
18797;DHT22;9526;52.612;13.300;2023-04-24T04:31:55;11.80;99.90
18797;DHT22;9526;52.612;13.300;2023-04-24T04:34:19;11.90;99.90
18797;DHT22;9526;52.612;13.300;2023-04-24T04:36:45;11.80;99.90
18797;DHT22;9526;52.612;13.300;2023-04-24T04:39:25;11.80;99.90
18797;DHT22;9526;52.612;13.300;2023-04-24T04:41:58;11.80;99.90
18797;DHT22;9526;52.612;13.300;2023-04-24T04:44:30;11.70;99.90
18797;DHT22;9526;52.612;13.300;2023-04-24T04:46:55;11.80;99.90
18797;DHT22;9526;52.612;13.300;2023-04-24T04:49:25;11.80;99.90
18797;DHT22;9526;52.612;13.300;2023-04-24T04:51:51;11.80;99.90
18797;DHT22;9526;52.612;13.300;2023-04-24T04:54:15;11.90;99.90
18797;DHT22;9526;52.612;13.300;2023-04-24T04:56:40;11.90;99.90
18797;DHT22;9526;52.612;13.300;2023-04-24T04:59:04;11.90;99.90
18797;DHT22;9526;52.612;13.300;2023-04-24T05:01:31;11.90;99.90
18797;DHT22;9526;52.612;13.300;2023-04-24T05:03:55;12.00;99.90
18797;DHT22;9526;52.612;13.300;2023-04-24T05:06:19;12.00;99.90
18797;DHT22;9526;52.612;13.300;2023-04-24T05:08:45;12.10;99.90
18797;DHT22;9526;52.612;13.300;2023-04-24T05:11:27;12.10;99.90
18797;DHT22;9526;52.612;13.300;2023-04-24T05:13:52;12.10;99.90
18797;DHT22;9526;52.612;13.300;2023-04-24T05:16:24;12.20;99.90
18797;DHT22;9526;52.612;13.300;2023-04-24T05:18:50;12.20;99.90
18797;DHT22;9526;52.612;13.300;2023-04-24T05:21:19;12.30;99.90
18797;DHT22;9526;52.612;13.300;2023-04-24T05:23:45;12.30;99.90
18797;DHT22;9526;52.612;13.300;2023-04-24T05:26:16;12.40;99.90
18797;DHT22;9526;52.612;13.300;2023-04-24T05:28:39;12.50;99.90
18797;DHT22;9526;52.612;13.300;2023-04-24T05:31:06;12.50;99.90
18797;DHT22;9526;52.612;13.300;2023-04-24T05:33:30;12.60;99.90
18797;DHT22;9526;52.612;13.300;2023-04-24T05:35:58;12.60;99.90
18797;DHT22;9526;52.612;13.300;2023-04-24T05:38:22;12.60;99.90
18797;DHT22;9526;52.612;13.300;2023-04-24T05:40:46;12.70;99.90
18797;DHT22;9526;52.612;13.300;2023-04-24T05:43:09;12.70;99.90
18797;DHT22;9526;52.612;13.300;2023-04-24T05:45:33;12.80;99.90
18797;DHT22;9526;52.612;13.300;2023-04-24T05:47:58;12.80;99.90
18797;DHT22;9526;52.612;13.300;2023-04-24T05:50:21;12.90;99.90
18797;DHT22;9526;52.612;13.300;2023-04-24T05:52:47;13.00;99.90
18797;DHT22;9526;52.612;13.300;2023-04-24T05:55:20;13.20;99.90
18797;DHT22;9526;52.612;13.300;2023-04-24T05:57:43;13.30;99.90
18797;DHT22;9526;52.612;13.300;2023-04-24T06:00:08;13.50;99.90
18797;DHT22;9526;52.612;13.300;2023-04-24T06:02:44;13.80;99.90
18797;DHT22;9526;52.612;13.300;2023-04-24T06:05:08;14.00;99.90
18797;DHT22;9526;52.612;13.300;2023-04-24T06:07:32;14.30;99.90
18797;DHT22;9526;52.612;13.300;2023-04-24T06:10:00;14.60;99.90
18797;DHT22;9526;52.612;13.300;2023-04-24T06:12:28;14.80;99.90
18797;DHT22;9526;52.612;13.300;2023-04-24T06:14:57;15.00;99.90
18797;DHT22;9526;52.612;13.300;2023-04-24T06:17:40;15.00;99.90
18797;DHT22;9526;52.612;13.300;2023-04-24T06:20:05;15.10;99.90
18797;DHT22;9526;52.612;13.300;2023-04-24T06:22:30;15.40;99.90
18797;DHT22;9526;52.612;13.300;2023-04-24T06:24:53;15.70;99.90
18797;DHT22;9526;52.612;13.300;2023-04-24T06:27:20;15.80;99.90
18797;DHT22;9526;52.612;13.300;2023-04-24T06:29:44;16.50;99.90
18797;DHT22;9526;52.612;13.300;2023-04-24T06:32:07;17.20;99.90
18797;DHT22;9526;52.612;13.300;2023-04-24T06:34:31;17.80;99.90
18797;DHT22;9526;52.612;13.300;2023-04-24T06:36:56;17.70;99.90
18797;DHT22;9526;52.612;13.300;2023-04-24T06:39:20;18.20;99.90
18797;DHT22;9526;52.612;13.300;2023-04-24T06:41:43;19.20;99.90
18797;DHT22;9526;52.612;13.300;2023-04-24T06:44:15;19.10;99.90
18797;DHT22;9526;52.612;13.300;2023-04-24T06:46:39;19.10;99.90
18797;DHT22;9526;52.612;13.300;2023-04-24T06:49:03;19.50;99.90
18797;DHT22;9526;52.612;13.300;2023-04-24T06:51:26;19.50;99.90
18797;DHT22;9526;52.612;13.300;2023-04-24T06:53:51;19.60;99.90
18797;DHT22;9526;52.612;13.300;2023-04-24T06:56:15;20.00;99.90
18797;DHT22;9526;52.612;13.300;2023-04-24T06:58:39;19.80;99.90
18797;DHT22;9526;52.612;13.300;2023-04-24T07:01:04;20.00;99.90
18797;DHT22;9526;52.612;13.300;2023-04-24T07:03:29;20.20;99.90
18797;DHT22;9526;52.612;13.300;2023-04-24T07:05:54;20.40;99.90
18797;DHT22;9526;52.612;13.300;2023-04-24T07:08:19;20.30;99.90
18797;DHT22;9526;52.612;13.300;2023-04-24T07:10:44;20.20;99.90
18797;DHT22;9526;52.612;13.300;2023-04-24T07:13:08;19.90;99.90
18797;DHT22;9526;52.612;13.300;2023-04-24T07:15:31;19.90;99.90
18797;DHT22;9526;52.612;13.300;2023-04-24T07:17:57;20.20;99.90
18797;DHT22;9526;52.612;13.300;2023-04-24T07:20:21;20.20;99.90
18797;DHT22;9526;52.612;13.300;2023-04-24T07:22:44;20.20;99.90
18797;DHT22;9526;52.612;13.300;2023-04-24T07:25:09;20.30;99.90
18797;DHT22;9526;52.612;13.300;2023-04-24T07:27:32;19.90;99.90
18797;DHT22;9526;52.612;13.300;2023-04-24T07:29:56;19.80;99.90
18797;DHT22;9526;52.612;13.300;2023-04-24T07:32:20;20.10;99.90
18797;DHT22;9526;52.612;13.300;2023-04-24T07:34:45;20.50;99.90
18797;DHT22;9526;52.612;13.300;2023-04-24T07:37:09;20.70;99.90
18797;DHT22;9526;52.612;13.300;2023-04-24T07:39:32;20.90;99.90
18797;DHT22;9526;52.612;13.300;2023-04-24T07:41:56;21.00;99.90
18797;DHT22;9526;52.612;13.300;2023-04-24T07:44:21;21.00;99.90
18797;DHT22;9526;52.612;13.300;2023-04-24T07:46:44;20.70;99.90
18797;DHT22;9526;52.612;13.300;2023-04-24T07:49:08;20.70;99.90
18797;DHT22;9526;52.612;13.300;2023-04-24T07:51:36;20.30;99.90
18797;DHT22;9526;52.612;13.300;2023-04-24T07:54:01;20.30;99.90
18797;DHT22;9526;52.612;13.300;2023-04-24T07:56:24;20.00;99.90
18797;DHT22;9526;52.612;13.300;2023-04-24T07:58:49;19.70;99.90
18797;DHT22;9526;52.612;13.300;2023-04-24T08:01:12;19.30;99.90
18797;DHT22;9526;52.612;13.300;2023-04-24T08:03:36;19.10;99.90
18797;DHT22;9526;52.612;13.300;2023-04-24T08:06:00;19.40;99.90
18797;DHT22;9526;52.612;13.300;2023-04-24T08:08:25;19.50;99.90
18797;DHT22;9526;52.612;13.300;2023-04-24T08:10:49;19.60;99.90
18797;DHT22;9526;52.612;13.300;2023-04-24T08:13:13;19.20;99.90
18797;DHT22;9526;52.612;13.300;2023-04-24T08:15:36;19.10;99.90
18797;DHT22;9526;52.612;13.300;2023-04-24T08:18:00;19.20;99.90
18797;DHT22;9526;52.612;13.300;2023-04-24T08:20:24;19.60;99.90
18797;DHT22;9526;52.612;13.300;2023-04-24T08:22:47;20.00;99.90
18797;DHT22;9526;52.612;13.300;2023-04-24T08:25:13;20.20;99.90
18797;DHT22;9526;52.612;13.300;2023-04-24T08:27:36;20.30;99.90
18797;DHT22;9526;52.612;13.300;2023-04-24T08:30:00;20.10;99.90
18797;DHT22;9526;52.612;13.300;2023-04-24T08:32:24;20.10;99.90
18797;DHT22;9526;52.612;13.300;2023-04-24T08:34:49;19.40;99.90
18797;DHT22;9526;52.612;13.300;2023-04-24T08:37:14;19.50;99.90
18797;DHT22;9526;52.612;13.300;2023-04-24T08:39:38;19.40;99.90
18797;DHT22;9526;52.612;13.300;2023-04-24T08:42:04;19.50;99.90
18797;DHT22;9526;52.612;13.300;2023-04-24T08:44:31;19.50;99.90
18797;DHT22;9526;52.612;13.300;2023-04-24T08:46:55;19.70;99.90
18797;DHT22;9526;52.612;13.300;2023-04-24T08:49:19;19.80;99.90
18797;DHT22;9526;52.612;13.300;2023-04-24T08:51:44;19.50;99.90
18797;DHT22;9526;52.612;13.300;2023-04-24T08:54:08;19.80;99.90
18797;DHT22;9526;52.612;13.300;2023-04-24T08:56:34;19.80;99.90
18797;DHT22;9526;52.612;13.300;2023-04-24T08:59:01;19.90;99.90
18797;DHT22;9526;52.612;13.300;2023-04-24T09:01:25;19.80;99.90
18797;DHT22;9526;52.612;13.300;2023-04-24T09:03:51;19.60;99.90
18797;DHT22;9526;52.612;13.300;2023-04-24T09:06:17;19.40;99.90
18797;DHT22;9526;52.612;13.300;2023-04-24T09:08:44;19.50;99.90
18797;DHT22;9526;52.612;13.300;2023-04-24T09:11:09;19.50;99.90
18797;DHT22;9526;52.612;13.300;2023-04-24T09:13:33;19.60;99.90
18797;DHT22;9526;52.612;13.300;2023-04-24T09:15:59;19.40;99.90
18797;DHT22;9526;52.612;13.300;2023-04-24T09:18:23;19.20;99.90
18797;DHT22;9526;52.612;13.300;2023-04-24T09:21:00;19.20;99.90
18797;DHT22;9526;52.612;13.300;2023-04-24T09:23:26;19.30;99.90
18797;DHT22;9526;52.612;13.300;2023-04-24T09:25:54;19.10;99.90
18797;DHT22;9526;52.612;13.300;2023-04-24T09:28:19;19.20;99.90
18797;DHT22;9526;52.612;13.300;2023-04-24T09:30:42;19.40;99.90
18797;DHT22;9526;52.612;13.300;2023-04-24T09:33:14;19.40;99.90
18797;DHT22;9526;52.612;13.300;2023-04-24T09:35:41;19.60;99.90
18797;DHT22;9526;52.612;13.300;2023-04-24T09:38:06;19.70;99.90
18797;DHT22;9526;52.612;13.300;2023-04-24T09:40:30;19.70;99.90
18797;DHT22;9526;52.612;13.300;2023-04-24T09:42:54;20.10;99.90
18797;DHT22;9526;52.612;13.300;2023-04-24T09:45:20;20.20;99.90
18797;DHT22;9526;52.612;13.300;2023-04-24T09:47:44;19.80;99.90
18797;DHT22;9526;52.612;13.300;2023-04-24T09:50:14;19.60;99.90
18797;DHT22;9526;52.612;13.300;2023-04-24T09:52:41;19.40;99.90
18797;DHT22;9526;52.612;13.300;2023-04-24T09:55:11;19.30;99.90
18797;DHT22;9526;52.612;13.300;2023-04-24T09:57:35;19.20;99.90
18797;DHT22;9526;52.612;13.300;2023-04-24T09:59:59;19.20;99.90
18797;DHT22;9526;52.612;13.300;2023-04-24T10:02:32;19.20;99.90
18797;DHT22;9526;52.612;13.300;2023-04-24T10:04:56;19.20;99.90
18797;DHT22;9526;52.612;13.300;2023-04-24T10:07:25;19.20;99.90
18797;DHT22;9526;52.612;13.300;2023-04-24T10:09:49;19.10;99.90
18797;DHT22;9526;52.612;13.300;2023-04-24T10:12:13;19.00;99.90
18797;DHT22;9526;52.612;13.300;2023-04-24T10:14:38;18.90;99.90
18797;DHT22;9526;52.612;13.300;2023-04-24T10:17:05;18.70;99.90
18797;DHT22;9526;52.612;13.300;2023-04-24T10:19:29;18.80;99.90
18797;DHT22;9526;52.612;13.300;2023-04-24T10:21:54;19.00;99.90
18797;DHT22;9526;52.612;13.300;2023-04-24T10:24:20;19.10;99.90
18797;DHT22;9526;52.612;13.300;2023-04-24T10:26:45;19.10;99.90
18797;DHT22;9526;52.612;13.300;2023-04-24T10:29:11;19.30;99.90
18797;DHT22;9526;52.612;13.300;2023-04-24T10:31:38;19.20;99.90
18797;DHT22;9526;52.612;13.300;2023-04-24T10:34:02;19.30;99.90
18797;DHT22;9526;52.612;13.300;2023-04-24T10:36:27;19.20;99.90
18797;DHT22;9526;52.612;13.300;2023-04-24T10:38:55;19.10;99.90
18797;DHT22;9526;52.612;13.300;2023-04-24T10:41:25;19.20;99.90
18797;DHT22;9526;52.612;13.300;2023-04-24T10:44:04;19.20;99.90
18797;DHT22;9526;52.612;13.300;2023-04-24T10:46:29;18.90;99.90
18797;DHT22;9526;52.612;13.300;2023-04-24T10:48:54;18.80;99.90
18797;DHT22;9526;52.612;13.300;2023-04-24T10:51:18;18.70;99.90
18797;DHT22;9526;52.612;13.300;2023-04-24T10:53:45;18.60;99.90
18797;DHT22;9526;52.612;13.300;2023-04-24T10:56:09;18.60;99.90
18797;DHT22;9526;52.612;13.300;2023-04-24T10:58:40;18.60;99.90
18797;DHT22;9526;52.612;13.300;2023-04-24T11:01:07;18.60;99.90
18797;DHT22;9526;52.612;13.300;2023-04-24T11:03:33;18.60;99.90
18797;DHT22;9526;52.612;13.300;2023-04-24T11:06:00;18.70;99.90
18797;DHT22;9526;52.612;13.300;2023-04-24T11:08:30;18.70;99.90
18797;DHT22;9526;52.612;13.300;2023-04-24T11:10:58;18.80;99.90
18797;DHT22;9526;52.612;13.300;2023-04-24T11:16:28;18.80;99.90
18797;DHT22;9526;52.612;13.300;2023-04-24T11:19:01;18.70;99.90
18797;DHT22;9526;52.612;13.300;2023-04-24T11:21:25;18.60;99.90
18797;DHT22;9526;52.612;13.300;2023-04-24T11:23:50;18.60;99.90
18797;DHT22;9526;52.612;13.300;2023-04-24T11:26:18;18.70;99.90
18797;DHT22;9526;52.612;13.300;2023-04-24T11:28:47;18.60;99.90
18797;DHT22;9526;52.612;13.300;2023-04-24T11:31:36;18.70;99.90
18797;DHT22;9526;52.612;13.300;2023-04-24T11:34:06;18.80;99.90
18797;DHT22;9526;52.612;13.300;2023-04-24T11:36:31;19.00;99.90
18797;DHT22;9526;52.612;13.300;2023-04-24T11:38:55;18.90;99.90
18797;DHT22;9526;52.612;13.300;2023-04-24T11:41:20;19.00;99.90
18797;DHT22;9526;52.612;13.300;2023-04-24T11:43:44;19.20;99.90
18797;DHT22;9526;52.612;13.300;2023-04-24T11:46:09;19.40;99.90
18797;DHT22;9526;52.612;13.300;2023-04-24T11:48:35;19.70;99.90
18797;DHT22;9526;52.612;13.300;2023-04-24T11:51:02;19.90;99.90
18797;DHT22;9526;52.612;13.300;2023-04-24T11:53:25;19.60;99.90
18797;DHT22;9526;52.612;13.300;2023-04-24T11:55:49;19.70;99.90
18797;DHT22;9526;52.612;13.300;2023-04-24T11:58:12;19.90;99.90
18797;DHT22;9526;52.612;13.300;2023-04-24T12:00:36;20.10;99.90
18797;DHT22;9526;52.612;13.300;2023-04-24T12:03:05;20.30;99.90
18797;DHT22;9526;52.612;13.300;2023-04-24T12:05:31;20.50;99.90
18797;DHT22;9526;52.612;13.300;2023-04-24T12:07:55;20.10;99.90
18797;DHT22;9526;52.612;13.300;2023-04-24T12:10:20;20.00;99.90
18797;DHT22;9526;52.612;13.300;2023-04-24T12:12:45;19.90;99.90
18797;DHT22;9526;52.612;13.300;2023-04-24T12:15:10;20.10;99.90
18797;DHT22;9526;52.612;13.300;2023-04-24T12:17:34;20.10;99.90
18797;DHT22;9526;52.612;13.300;2023-04-24T12:20:00;19.80;99.90
18797;DHT22;9526;52.612;13.300;2023-04-24T12:22:27;19.40;99.90
18797;DHT22;9526;52.612;13.300;2023-04-24T12:24:59;19.40;99.90
18797;DHT22;9526;52.612;13.300;2023-04-24T12:27:23;19.40;99.90
18797;DHT22;9526;52.612;13.300;2023-04-24T12:29:52;19.40;99.90
18797;DHT22;9526;52.612;13.300;2023-04-24T12:32:16;19.40;99.90
18797;DHT22;9526;52.612;13.300;2023-04-24T12:34:40;19.40;99.90
18797;DHT22;9526;52.612;13.300;2023-04-24T12:37:10;19.30;99.90
18797;DHT22;9526;52.612;13.300;2023-04-24T12:39:35;19.00;99.90
18797;DHT22;9526;52.612;13.300;2023-04-24T12:41:59;19.10;99.90
18797;DHT22;9526;52.612;13.300;2023-04-24T12:44:29;19.20;99.90
18797;DHT22;9526;52.612;13.300;2023-04-24T12:46:54;19.30;99.90
18797;DHT22;9526;52.612;13.300;2023-04-24T12:49:17;19.20;99.90
18797;DHT22;9526;52.612;13.300;2023-04-24T12:51:41;18.90;99.90
18797;DHT22;9526;52.612;13.300;2023-04-24T12:54:05;18.80;99.90
18797;DHT22;9526;52.612;13.300;2023-04-24T12:56:30;18.80;99.90
18797;DHT22;9526;52.612;13.300;2023-04-24T12:58:54;18.80;99.90
18797;DHT22;9526;52.612;13.300;2023-04-24T13:01:17;18.80;99.90
18797;DHT22;9526;52.612;13.300;2023-04-24T13:03:41;19.00;99.90
18797;DHT22;9526;52.612;13.300;2023-04-24T13:06:06;19.20;99.90
18797;DHT22;9526;52.612;13.300;2023-04-24T13:08:29;19.30;99.90
18797;DHT22;9526;52.612;13.300;2023-04-24T13:10:53;19.20;99.90
18797;DHT22;9526;52.612;13.300;2023-04-24T13:13:18;19.30;99.90
18797;DHT22;9526;52.612;13.300;2023-04-24T13:15:41;19.20;99.90
18797;DHT22;9526;52.612;13.300;2023-04-24T13:18:05;19.10;99.90
18797;DHT22;9526;52.612;13.300;2023-04-24T13:20:29;19.00;99.90
18797;DHT22;9526;52.612;13.300;2023-04-24T13:22:53;19.10;99.90
18797;DHT22;9526;52.612;13.300;2023-04-24T13:25:16;19.10;99.90
18797;DHT22;9526;52.612;13.300;2023-04-24T13:27:42;18.90;99.90
18797;DHT22;9526;52.612;13.300;2023-04-24T13:30:08;18.80;99.90
18797;DHT22;9526;52.612;13.300;2023-04-24T13:32:32;19.00;99.90
18797;DHT22;9526;52.612;13.300;2023-04-24T13:34:57;19.30;99.90
18797;DHT22;9526;52.612;13.300;2023-04-24T13:37:21;19.50;99.90
18797;DHT22;9526;52.612;13.300;2023-04-24T13:39:45;19.60;99.90
18797;DHT22;9526;52.612;13.300;2023-04-24T13:42:08;19.80;99.90
18797;DHT22;9526;52.612;13.300;2023-04-24T13:44:32;20.10;99.90
18797;DHT22;9526;52.612;13.300;2023-04-24T13:46:58;20.30;99.90
18797;DHT22;9526;52.612;13.300;2023-04-24T13:49:23;20.40;99.90
18797;DHT22;9526;52.612;13.300;2023-04-24T13:51:47;20.50;99.90
18797;DHT22;9526;52.612;13.300;2023-04-24T13:54:11;20.60;99.90
18797;DHT22;9526;52.612;13.300;2023-04-24T13:56:35;20.50;99.90
18797;DHT22;9526;52.612;13.300;2023-04-24T13:58:59;20.40;99.90
18797;DHT22;9526;52.612;13.300;2023-04-24T14:01:23;20.30;99.90
18797;DHT22;9526;52.612;13.300;2023-04-24T14:03:48;20.10;99.90
18797;DHT22;9526;52.612;13.300;2023-04-24T14:06:12;19.90;99.90
18797;DHT22;9526;52.612;13.300;2023-04-24T14:08:36;20.00;99.90
18797;DHT22;9526;52.612;13.300;2023-04-24T14:11:00;20.10;99.90
18797;DHT22;9526;52.612;13.300;2023-04-24T14:13:25;20.30;99.90
18797;DHT22;9526;52.612;13.300;2023-04-24T14:15:49;20.00;99.90
18797;DHT22;9526;52.612;13.300;2023-04-24T14:18:14;20.00;99.90
18797;DHT22;9526;52.612;13.300;2023-04-24T14:20:39;19.70;99.30
18797;DHT22;9526;52.612;13.300;2023-04-24T14:23:03;19.60;98.20
18797;DHT22;9526;52.612;13.300;2023-04-24T14:25:27;19.50;98.30
18797;DHT22;9526;52.612;13.300;2023-04-24T14:27:51;19.50;97.50
18797;DHT22;9526;52.612;13.300;2023-04-24T14:30:15;19.40;94.40
18797;DHT22;9526;52.612;13.300;2023-04-24T14:32:39;19.40;96.00
18797;DHT22;9526;52.612;13.300;2023-04-24T14:35:03;19.30;94.80
18797;DHT22;9526;52.612;13.300;2023-04-24T14:37:29;19.00;92.10
18797;DHT22;9526;52.612;13.300;2023-04-24T14:39:52;18.90;93.90
18797;DHT22;9526;52.612;13.300;2023-04-24T14:44:56;18.70;94.20
18797;DHT22;9526;52.612;13.300;2023-04-24T14:47:19;19.00;95.30
18797;DHT22;9526;52.612;13.300;2023-04-24T14:49:44;19.20;93.90
18797;DHT22;9526;52.612;13.300;2023-04-24T14:52:09;19.30;93.70
18797;DHT22;9526;52.612;13.300;2023-04-24T14:54:34;19.00;92.50
18797;DHT22;9526;52.612;13.300;2023-04-24T14:56:57;18.80;92.10
18797;DHT22;9526;52.612;13.300;2023-04-24T14:59:23;18.70;92.20
18797;DHT22;9526;52.612;13.300;2023-04-24T15:01:46;18.80;93.00
18797;DHT22;9526;52.612;13.300;2023-04-24T15:04:11;18.80;92.30
18797;DHT22;9526;52.612;13.300;2023-04-24T15:06:35;18.80;94.00
18797;DHT22;9526;52.612;13.300;2023-04-24T15:08:59;18.70;93.90
18797;DHT22;9526;52.612;13.300;2023-04-24T15:11:24;18.40;92.10
18797;DHT22;9526;52.612;13.300;2023-04-24T15:13:48;18.10;93.10
18797;DHT22;9526;52.612;13.300;2023-04-24T15:16:11;17.90;93.70
18797;DHT22;9526;52.612;13.300;2023-04-24T15:18:35;18.00;94.00
18797;DHT22;9526;52.612;13.300;2023-04-24T15:20:59;18.10;93.30
18797;DHT22;9526;52.612;13.300;2023-04-24T15:23:22;18.00;94.10